Time;durP1;ratioP1;P1;durP2;ratioP2;P2;SDS_P1;SDS_P2;PMS_P1;PMS_P2;Temp;Humidity;BMP_temperature;BMP_pressure;BME280_temperature;BME280_humidity;BME280_pressure;Samples;Min_cycle;Max_cycle;Signal;HPM_P1;HPM_P2
2021/05/25 00:03:36;;;;;;;2.90;1.55;;;;;;;14.39;87.76;99705.71;2724540;86;21152;-64
2021/05/25 00:07:38;;;;;;;2.92;2.10;;;;;;;14.39;87.73;99707.53;2751348;86;21058;-63
2021/05/25 00:11:41;;;;;;;4.28;2.90;;;;;;;14.32;87.89;99707.35;2751188;86;21125;-64
2021/05/25 00:15:42;;;;;;;1.37;1.27;;;;;;;14.25;88.11;99704.52;2750776;85;21071;-64
2021/05/25 00:19:44;;;;;;;1.80;1.52;;;;;;;14.26;88.48;99698.17;2713979;86;21085;-64
2021/05/25 00:23:46;;;;;;;2.70;2.02;;;;;;;14.25;88.68;99707.20;2712099;87;21069;-64
2021/05/25 00:27:50;;;;;;;2.42;1.70;;;;;;;14.20;89.09;99702.81;2712443;87;21085;-63
2021/05/25 00:31:52;;;;;;;3.90;2.12;;;;;;;14.24;89.12;99710.02;2712573;87;21113;-64
2021/05/25 00:35:55;;;;;;;3.17;1.90;;;;;;;14.26;88.96;99707.53;2712388;87;21092;-62
2021/05/25 00:39:57;;;;;;;3.00;2.67;;;;;;;14.30;88.64;99690.63;2712097;87;21075;-63
2021/05/25 00:43:59;;;;;;;5.83;2.27;;;;;;;14.45;88.53;99696.68;2712533;87;21068;-63
2021/05/25 00:48:01;;;;;;;5.12;1.98;;;;;;;14.48;88.37;99687.83;2712508;87;21057;-62
2021/05/25 00:52:04;;;;;;;2.20;1.98;;;;;;;14.49;87.66;99682.81;2712295;87;21104;-62
2021/05/25 00:56:08;;;;;;;3.85;2.52;;;;;;;14.46;88.13;99676.94;2712057;87;21100;-63
2021/05/25 01:00:12;;;;;;;4.35;2.27;;;;;;;14.41;88.45;99674.27;2711686;87;21104;-64
2021/05/25 01:04:13;;;;;;;2.55;2.33;;;;;;;14.47;88.27;99667.91;2712360;87;21053;-64
2021/05/25 01:08:16;;;;;;;4.67;2.55;;;;;;;14.50;88.43;99644.83;2712924;87;21338;-61
2021/05/25 01:12:18;;;;;;;3.37;2.08;;;;;;;14.62;88.00;99643.50;2712640;87;21013;-62
2021/05/25 01:16:26;;;;;;;4.20;1.98;;;;;;;14.48;87.52;99642.83;2713402;85;21100;-62
2021/05/25 01:20:30;;;;;;;4.15;3.33;;;;;;;14.48;88.13;99635.65;2750578;86;21124;-61
2021/05/25 01:24:33;;;;;;;3.08;2.77;;;;;;;14.41;88.19;99631.46;2750686;86;21085;-61
2021/05/25 01:28:37;;;;;;;5.85;3.27;;;;;;;14.44;88.36;99642.31;2750754;85;21087;-63
2021/05/25 01:32:38;;;;;;;3.60;2.70;;;;;;;14.33;88.25;99624.75;2750385;86;21109;-63
2021/05/25 01:36:40;;;;;;;4.10;2.27;;;;;;;14.29;88.95;99655.52;2750768;86;21125;-64
2021/05/25 01:40:44;;;;;;;4.03;3.05;;;;;;;14.45;89.28;99648.52;2761543;85;21095;-64
2021/05/25 01:44:46;;;;;;;4.75;2.02;;;;;;;14.54;88.60;99664.89;2787173;85;21083;-62
2021/05/25 01:48:51;;;;;;;3.70;2.33;;;;;;;14.59;87.70;99669.27;2787754;85;21401;-62
2021/05/25 01:53:02;;;;;;;2.10;1.53;;;;;;;14.51;87.90;99665.23;2787582;85;21632;-63
2021/05/25 01:57:04;;;;;;;3.98;2.50;;;;;;;14.45;87.95;99671.26;2787197;85;21127;-62
2021/05/25 02:01:10;;;;;;;3.00;2.17;;;;;;;14.43;88.31;99678.10;2787340;85;21592;-62
2021/05/25 02:05:14;;;;;;;5.07;2.47;;;;;;;14.50;87.74;99686.31;2787719;85;21111;-62
2021/05/25 02:09:16;;;;;;;4.28;2.35;;;;;;;14.60;87.47;99690.16;2787811;85;21071;-64
2021/05/25 02:13:21;;;;;;;2.95;1.80;;;;;;;14.64;86.72;99669.59;2787524;85;21083;-63
2021/05/25 02:17:28;;;;;;;2.92;1.87;;;;;;;14.60;85.91;99680.80;2779433;84;21105;-64
2021/05/25 02:21:29;;;;;;;4.05;2.12;;;;;;;14.59;86.19;99686.66;2744980;86;21113;-64
2021/05/25 02:25:33;;;;;;;2.27;1.92;;;;;;;14.64;86.00;99683.46;2745080;86;21058;-64
2021/05/25 02:29:34;;;;;;;4.83;2.98;;;;;;;14.62;85.48;99689.00;2745069;86;21671;-65
2021/05/25 02:33:36;;;;;;;4.45;2.67;;;;;;;14.57;85.15;99692.69;2745195;86;21098;-65
2021/05/25 02:37:38;;;;;;;3.62;2.92;;;;;;;14.53;84.80;99685.97;2745449;86;21093;-65
2021/05/25 02:41:39;;;;;;;5.90;4.20;;;;;;;14.49;84.64;99689.98;2745428;86;21098;-63
2021/05/25 02:45:41;;;;;;;3.70;3.35;;;;;;;14.48;84.56;99687.83;2745179;86;21089;-63
2021/05/25 02:49:43;;;;;;;4.67;3.58;;;;;;;14.43;83.63;99690.99;2744856;86;21087;-63
2021/05/25 02:53:49;;;;;;;3.98;2.85;;;;;;;14.36;83.92;99683.30;2736652;86;22449;-65
2021/05/25 02:57:53;;;;;;;3.55;3.17;;;;;;;14.33;83.41;99691.63;2709423;86;21109;-63
2021/05/25 03:01:55;;;;;;;4.65;3.40;;;;;;;14.25;83.35;99697.84;2700314;88;21085;-63
2021/05/25 03:05:57;;;;;;;3.42;2.77;;;;;;;14.20;83.07;99710.02;2700173;88;21093;-61
2021/05/25 03:09:59;;;;;;;2.92;2.58;;;;;;;14.10;82.83;99705.64;2700297;88;21090;-61
2021/05/25 03:14:00;;;;;;;3.92;2.45;;;;;;;14.07;83.15;99714.50;2700238;88;21105;-62
2021/05/25 03:18:03;;;;;;;3.27;2.60;;;;;;;14.05;83.54;99717.81;2700079;86;21094;-62
2021/05/25 03:22:05;;;;;;;3.02;2.72;;;;;;;13.99;83.76;99711.30;2699798;88;21082;-62
2021/05/25 03:26:07;;;;;;;3.70;2.45;;;;;;;13.94;84.09;99711.78;2699749;88;21146;-61
2021/05/25 03:30:14;;;;;;;1.98;1.87;;;;;;;13.81;84.27;99718.07;2699789;88;21137;-62
2021/05/25 03:34:15;;;;;;;2.27;2.08;;;;;;;13.74;84.89;99717.88;2700051;88;21133;-62
2021/05/25 03:38:17;;;;;;;3.67;2.60;;;;;;;13.75;85.01;99719.55;2700118;88;21129;-62
2021/05/25 03:42:19;;;;;;;5.00;3.20;;;;;;;13.76;85.57;99718.58;2700449;88;21125;-62
2021/05/25 03:46:23;;;;;;;4.20;2.17;;;;;;;13.74;86.32;99716.53;2700305;88;21631;-62
2021/05/25 03:50:25;;;;;;;3.00;2.80;;;;;;;13.82;86.47;99722.42;2700367;88;21129;-62
2021/05/25 03:55:12;;;;;;;2.47;2.27;;;;;;;13.88;86.68;99738.32;2700043;88;21086;-62
2021/05/25 03:59:06;;;;;;;2.42;2.22;;;;;;;13.92;86.93;99743.67;2706730;86;21603;-63
2021/05/25 04:02:42;;;;;;;2.98;2.37;;;;;;;13.96;87.36;99735.70;2699566;88;21139;-63
2021/05/25 04:06:46;;;;;;;2.60;2.40;;;;;;;14.05;88.18;99738.72;2700568;88;21138;-62
2021/05/25 04:10:48;;;;;;;2.33;2.05;;;;;;;14.29;88.76;99741.13;2700585;88;21058;-63
2021/05/25 04:14:50;;;;;;;4.75;2.20;;;;;;;14.57;89.50;99734.98;2700524;88;21128;-63
2021/05/25 04:18:52;;;;;;;2.52;2.30;;;;;;;15.26;91.40;99735.17;2717571;86;21123;-61
2021/05/25 04:22:54;;;;;;;3.65;2.47;;;;;;;15.44;87.09;99734.66;2741969;86;21123;-62
2021/05/25 04:26:55;;;;;;;2.47;2.12;;;;;;;15.42;86.35;99750.37;2741996;86;21612;-61
2021/05/25 04:30:58;;;;;;;2.62;2.12;;;;;;;15.28;85.45;99754.59;2742052;86;21668;-64
2021/05/25 04:35:00;;;;;;;3.33;2.00;;;;;;;15.17;85.42;99752.77;2741961;86;21168;-64
2021/05/25 04:39:03;;;;;;;2.67;2.47;;;;;;;15.08;85.99;99755.95;2742034;86;21060;-63
2021/05/25 04:43:06;;;;;;;2.42;2.22;;;;;;;15.06;86.90;99763.33;2742181;86;21075;-62
2021/05/25 04:47:27;;;;;;;2.35;2.15;;;;;;;15.06;86.98;99772.70;2913063;81;21100;-63
2021/05/25 04:51:29;;;;;;;2.45;2.25;;;;;;;15.01;86.50;99776.39;2878485;82;21071;-63
2021/05/25 04:55:31;;;;;;;5.28;1.80;;;;;;;14.99;87.14;99778.73;2894647;81;21084;-63
2021/05/25 04:59:33;;;;;;;2.17;1.87;;;;;;;15.04;87.61;99784.08;2956996;80;21048;-63
2021/05/25 05:03:34;;;;;;;4.37;2.22;;;;;;;15.17;87.23;99795.14;2929463;81;21061;-63
2021/05/25 05:07:36;;;;;;;1.85;1.75;;;;;;;15.27;86.85;99803.83;2929458;81;21086;-64
2021/05/25 05:11:38;;;;;;;1.75;1.65;;;;;;;15.35;86.22;99800.83;2956666;80;21081;-64
2021/05/25 05:15:40;;;;;;;3.70;2.27;;;;;;;15.37;85.72;99796.13;2929385;81;21089;-64
2021/05/25 05:19:43;;;;;;;2.33;1.60;;;;;;;15.39;85.57;99802.16;2956731;80;21606;-65
2021/05/25 05:23:45;;;;;;;2.87;1.82;;;;;;;15.37;85.37;99806.85;2929463;81;21038;-64
2021/05/25 05:27:46;;;;;;;2.12;2.00;;;;;;;15.34;84.72;99813.89;2955819;80;21074;-63
2021/05/25 05:31:48;;;;;;;2.60;1.50;;;;;;;15.30;85.21;99826.78;2929316;81;21654;-64
2021/05/25 05:35:50;;;;;;;2.58;1.90;;;;;;;15.26;85.04;99834.83;2956794;80;21099;-64
2021/05/25 05:39:52;;;;;;;2.25;1.87;;;;;;;15.22;85.48;99839.67;2929530;81;21062;-64
2021/05/25 05:43:53;;;;;;;2.85;2.20;;;;;;;15.18;85.22;99847.72;2928769;81;21560;-63
2021/05/25 05:47:55;;;;;;;2.52;1.80;;;;;;;15.11;85.39;99860.08;2920414;81;21129;-64
2021/05/25 05:51:57;;;;;;;1.70;1.60;;;;;;;15.09;85.96;99868.78;2950866;80;21025;-64
2021/05/25 05:55:59;;;;;;;1.65;1.55;;;;;;;15.12;86.05;99875.14;2950363;80;21598;-64
2021/05/25 06:00:01;;;;;;;2.27;1.75;;;;;;;15.11;85.83;99870.30;2920565;81;21046;-65
2021/05/25 06:04:05;;;;;;;2.27;1.77;;;;;;;15.13;85.42;99872.31;2920478;81;21058;-64
2021/05/25 06:08:09;;;;;;;1.42;1.22;;;;;;;15.14;85.24;99873.17;2920601;81;21038;-64
2021/05/25 06:12:11;;;;;;;1.75;1.25;;;;;;;15.17;85.37;99876.00;2920519;81;21073;-64
2021/05/25 06:16:15;;;;;;;3.72;1.92;;;;;;;15.15;85.03;99878.86;2920391;81;21062;-64
2021/05/25 06:20:17;;;;;;;2.20;1.07;;;;;;;15.16;85.38;99887.23;2920469;81;21050;-64
2021/05/25 06:24:21;;;;;;;1.60;1.50;;;;;;;15.12;85.19;99892.56;2950574;80;21041;-65
2021/05/25 06:28:23;;;;;;;1.85;1.65;;;;;;;15.01;85.04;99896.91;2920002;81;21043;-64
2021/05/25 06:32:25;;;;;;;5.17;2.17;;;;;;;14.87;85.68;99897.05;2920209;81;21532;-64
2021/05/25 06:36:27;;;;;;;2.02;1.55;;;;;;;14.77;86.28;99899.35;2919718;81;21109;-63
2021/05/25 06:40:29;;;;;;;1.98;1.85;;;;;;;14.68;86.75;99904.33;2919686;81;21086;-64
2021/05/25 06:44:31;;;;;;;3.75;2.30;;;;;;;14.58;87.22;99912.48;2918508;81;21054;-64
2021/05/25 06:48:34;;;;;;;5.50;2.72;;;;;;;14.51;87.43;99919.46;2958595;80;21590;-64
2021/05/25 06:52:36;;;;;;;2.65;2.40;;;;;;;14.47;88.51;99918.97;2914557;81;21102;-64
2021/05/25 06:56:38;;;;;;;2.77;2.58;;;;;;;14.46;87.83;99919.11;2958622;80;21092;-63
2021/05/25 07:00:40;;;;;;;3.33;1.90;;;;;;;14.47;87.25;99927.48;2914588;81;21023;-63
2021/05/25 07:04:42;;;;;;;2.30;1.32;;;;;;;14.45;85.88;99937.51;2958747;80;21045;-64
2021/05/25 07:08:43;;;;;;;1.80;1.70;;;;;;;14.36;85.28;99942.83;2958771;80;21073;-64
2021/05/25 07:12:45;;;;;;;1.87;1.17;;;;;;;14.28;85.64;99937.41;2914373;81;21654;-64
2021/05/25 07:16:47;;;;;;;3.37;1.37;;;;;;;14.22;85.00;99945.57;2914399;81;21078;-64
2021/05/25 07:20:49;;;;;;;4.00;1.30;;;;;;;14.09;84.48;99942.50;2914519;81;21069;-63
2021/05/25 07:24:51;;;;;;;3.75;1.70;;;;;;;13.97;84.98;99952.10;2914404;81;21583;-64
2021/05/25 07:28:53;;;;;;;6.75;3.35;;;;;;;13.93;86.55;99967.27;2958777;80;22274;-63
2021/05/25 07:32:55;;;;;;;4.10;3.70;;;;;;;13.89;87.00;99972.59;2914484;81;21062;-63
2021/05/25 07:36:56;;;;;;;5.22;3.40;;;;;;;13.92;87.72;99975.80;2914329;81;21070;-64
2021/05/25 07:40:59;;;;;;;3.77;2.83;;;;;;;13.96;87.66;99995.06;2958563;80;21060;-64
2021/05/25 07:45:00;;;;;;;5.83;4.45;;;;;;;13.95;87.44;100000.89;2958514;80;21042;-63
2021/05/25 07:49:04;;;;;;;3.83;2.98;;;;;;;13.97;87.79;100000.75;2914278;81;21070;-64
2021/05/25 07:53:05;;;;;;;4.80;2.67;;;;;;;14.00;88.52;100011.13;2958556;80;21065;-64
2021/05/25 07:57:09;;;;;;;4.50;2.62;;;;;;;14.06;89.02;100013.17;2958661;80;21144;-63
2021/05/25 08:01:11;;;;;;;1.65;1.42;;;;;;;14.14;88.76;100016.41;2914225;81;21058;-63
2021/05/25 08:05:16;;;;;;;2.00;1.10;;;;;;;14.27;88.52;100003.95;2914014;81;21588;-63
2021/05/25 08:09:18;;;;;;;2.58;1.37;;;;;;;14.36;87.32;99987.46;2958978;80;21013;-64
2021/05/25 08:13:20;;;;;;;2.25;1.57;;;;;;;14.50;87.59;99974.84;2958938;80;21064;-64
2021/05/25 08:21:34;;;;;;;4.72;1.95;;;;;;;14.90;86.92;99959.65;2958962;80;21041;-64
2021/05/25 08:25:37;;;;;;;2.67;1.10;;;;;;;15.12;85.25;99959.53;2914779;81;21078;-64
2021/05/25 08:29:39;;;;;;;1.90;1.42;;;;;;;15.36;86.36;99961.42;2959352;80;21033;-64
2021/05/25 08:33:41;;;;;;;2.27;1.60;;;;;;;15.59;84.91;99968.81;2915175;81;21165;-64
2021/05/25 08:37:46;;;;;;;3.00;1.77;;;;;;;15.82;82.82;99966.81;2959416;80;21017;-65
2021/05/25 08:41:48;;;;;;;2.47;1.13;;;;;;;16.03;80.79;99968.20;2960075;80;21037;-64
2021/05/25 08:45:51;;;;;;;4.10;1.87;;;;;;;16.19;79.26;99980.22;2917084;81;21358;-65
2021/05/25 08:49:54;;;;;;;2.62;1.85;;;;;;;16.35;78.62;99959.24;2951118;80;21061;-64
2021/05/25 08:53:59;;;;;;;2.45;1.45;;;;;;;16.61;78.32;99948.75;2951215;80;21065;-64
2021/05/25 08:58:03;;;;;;;1.87;1.20;;;;;;;16.83;78.83;99952.53;2951405;80;21014;-64
2021/05/25 09:02:06;;;;;;;2.02;1.80;;;;;;;16.98;74.94;99931.61;2921181;81;21069;-64
2021/05/25 09:06:08;;;;;;;2.65;1.47;;;;;;;16.99;72.71;99989.73;2951278;80;21029;-64
2021/05/25 09:10:37;;;;;;;2.62;1.65;;;;;;;16.88;75.11;100000.86;2920977;81;21113;-65
2021/05/25 09:14:58;;;;;;;3.00;1.32;;;;;;;16.76;75.17;99978.39;2950984;80;21053;-64
2021/05/25 09:19:00;;;;;;;1.75;1.27;;;;;;;16.85;74.44;99970.64;2859319;83;21079;-65
2021/05/25 09:23:01;;;;;;;2.25;1.35;;;;;;;17.01;73.71;99971.62;2859691;83;21072;-64
2021/05/25 09:27:05;;;;;;;2.45;1.22;;;;;;;17.17;73.58;99974.72;2859305;83;21124;-65
2021/05/25 09:31:07;;;;;;;2.80;1.07;;;;;;;17.27;71.04;99987.93;2859349;83;21096;-65
2021/05/25 09:35:11;;;;;;;2.98;1.00;;;;;;;17.23;70.91;99992.81;2859608;83;21155;-64
2021/05/25 09:39:12;;;;;;;1.45;1.35;;;;;;;17.21;70.96;99998.88;2859538;83;21134;-64
2021/05/25 09:43:27;;;;;;;0.60;0.60;;;;;;;17.09;69.37;100005.64;2859629;83;21096;-64
2021/05/25 09:47:54;;;;;;;1.32;0.95;;;;;;;17.05;71.00;100006.52;2861807;80;21088;-65
2021/05/25 09:52:08;;;;;;;1.30;1.15;;;;;;;17.05;71.34;99999.80;2915206;81;21046;-64
2021/05/25 09:56:16;;;;;;;3.40;1.40;;;;;;;17.18;71.28;99995.20;2959797;80;21037;-64
2021/05/25 10:00:30;;;;;;;1.67;1.32;;;;;;;17.18;69.20;99996.54;2958850;80;21076;-65
2021/05/25 10:04:32;;;;;;;1.87;1.35;;;;;;;17.05;69.14;100012.39;2959745;80;21041;-64
2021/05/25 10:08:35;;;;;;;2.90;1.37;;;;;;;17.02;71.18;100010.05;2915509;81;21041;-65
2021/05/25 10:12:38;;;;;;;2.40;1.10;;;;;;;17.06;68.33;100008.69;2960187;80;21022;-65
2021/05/25 10:16:43;;;;;;;4.10;1.42;;;;;;;17.02;68.54;100014.09;2915724;81;21058;-64
2021/05/25 10:20:45;;;;;;;2.95;1.02;;;;;;;16.96;67.70;100007.52;2959756;80;21559;-64
2021/05/25 10:24:47;;;;;;;2.65;1.37;;;;;;;16.91;67.92;99995.13;2960079;80;21037;-65
2021/05/25 10:28:51;;;;;;;1.70;1.30;;;;;;;17.06;69.77;100015.41;2915432;81;21054;-65
2021/05/25 10:33:13;;;;;;;1.72;0.80;;;;;;;17.18;69.01;100022.07;2960059;80;21598;-65
2021/05/25 10:37:16;;;;;;;2.15;0.80;;;;;;;17.32;68.66;100020.48;2958798;80;21077;-65
2021/05/25 10:41:30;;;;;;;1.45;0.82;;;;;;;17.37;67.77;100011.89;2915145;81;21094;-64
2021/05/25 10:45:31;;;;;;;1.50;1.02;;;;;;;17.31;68.10;100025.53;2959912;80;21013;-64
2021/05/25 10:50:12;;;;;;;3.20;1.62;;;;;;;17.23;68.12;100017.52;2925238;81;20995;-64
2021/05/25 10:54:26;;;;;;;2.40;1.12;;;;;;;17.15;68.46;100015.71;2956943;80;21562;-64
2021/05/25 10:58:35;;;;;;;2.92;1.87;;;;;;;16.84;67.83;100032.09;2924461;81;21018;-65
2021/05/25 11:03:14;;;;;;;4.45;1.87;;;;;;;16.44;66.39;100031.69;2924757;81;21022;-65
2021/05/25 11:07:40;;;;;;;1.87;1.35;;;;;;;16.11;67.14;100029.88;2923968;81;21045;-64
2021/05/25 11:11:42;;;;;;;6.70;1.82;;;;;;;15.92;66.19;100040.46;2960443;80;22394;-64
2021/05/25 11:20:53;;;;;;;2.75;1.52;;;;;;;16.33;65.79;100023.48;2960345;80;21005;-64
2021/05/25 11:25:00;;;;;;;2.77;1.62;;;;;;;16.82;65.16;100007.75;2957737;80;21597;-64
2021/05/25 11:29:20;;;;;;;1.20;1.05;;;;;;;17.21;64.30;100010.15;2960500;80;21033;-65
2021/05/25 11:33:36;;;;;;;1.02;0.93;;;;;;;17.34;61.18;100014.94;2924137;81;21090;-64
2021/05/25 11:37:42;;;;;;;3.60;0.93;;;;;;;17.45;62.33;100021.77;2925232;81;21062;-64
2021/05/25 11:41:44;;;;;;;6.90;1.55;;;;;;;17.58;59.89;100024.69;2959773;80;21052;-64
2021/05/25 11:45:46;;;;;;;2.05;0.88;;;;;;;17.46;60.91;100022.91;2924487;81;21094;-64
2021/05/25 11:49:49;;;;;;;2.35;1.70;;;;;;;17.30;61.12;100017.14;2951351;80;21014;-65
2021/05/25 11:53:51;;;;;;;2.45;0.82;;;;;;;17.08;61.98;100016.06;2920724;81;21050;-65
2021/05/25 11:57:54;;;;;;;9.13;1.32;;;;;;;16.96;62.12;100040.61;2920788;81;21539;-64
2021/05/25 12:01:56;;;;;;;17.50;2.65;;;;;;;17.03;64.01;100031.39;2951209;80;21034;-65
2021/05/25 12:05:58;;;;;;;2.22;1.55;;;;;;;17.05;61.75;100030.70;2920661;81;21066;-64
2021/05/25 12:10:02;;;;;;;2.62;1.57;;;;;;;16.99;61.79;100024.17;2951233;80;21014;-65
2021/05/25 12:14:04;;;;;;;3.85;2.15;;;;;;;16.89;62.64;100034.23;2951358;80;21013;-65
2021/05/25 12:18:12;;;;;;;3.77;1.52;;;;;;;16.81;63.25;100045.02;2920790;81;21086;-64
2021/05/25 12:22:14;;;;;;;1.70;0.85;;;;;;;16.74;63.81;100034.65;2920732;81;21058;-64
2021/05/25 12:26:18;;;;;;;1.70;0.65;;;;;;;16.80;64.45;100026.75;2951603;80;21054;-65
2021/05/25 12:30:23;;;;;;;1.35;0.60;;;;;;;17.16;64.23;100016.53;2920805;81;22252;-64
2021/05/25 12:34:25;;;;;;;1.40;0.90;;;;;;;17.73;62.98;100003.25;2951316;80;21112;-65
2021/05/25 12:38:28;;;;;;;4.00;1.77;;;;;;;18.20;58.17;100008.59;2901993;80;21142;-65
2021/05/25 12:42:35;;;;;;;3.55;1.25;;;;;;;18.52;58.57;100011.47;2850874;83;21063;-64
2021/05/25 12:47:04;;;;;;;2.72;1.32;;;;;;;18.69;56.44;100005.41;2863947;80;21042;-66
2021/05/25 12:51:09;;;;;;;4.00;0.72;;;;;;;18.87;55.70;100002.84;2900104;82;21102;-61
2021/05/25 12:55:13;;;;;;;2.40;0.83;;;;;;;19.24;55.89;100013.15;2899916;80;21096;-62
2021/05/25 12:59:18;;;;;;;2.25;0.88;;;;;;;19.45;54.16;100016.91;2900894;82;21027;-62
2021/05/25 13:03:27;;;;;;;1.05;0.62;;;;;;;19.50;53.30;100019.89;2901027;82;21038;-62
2021/05/25 13:07:32;;;;;;;1.20;0.75;;;;;;;19.45;52.97;100022.30;2901126;82;21944;-62
2021/05/25 13:11:34;;;;;;;2.60;0.62;;;;;;;19.19;53.45;100030.41;2898376;82;21074;-63
2021/05/25 13:16:00;;;;;;;2.70;0.70;;;;;;;19.11;54.99;100028.66;2898957;80;21050;-62
2021/05/25 13:20:02;;;;;;;3.60;1.00;;;;;;;19.25;54.92;100023.44;2910260;81;21045;-62
2021/05/25 13:24:05;;;;;;;4.65;0.98;;;;;;;19.15;54.17;100015.64;2910102;81;21116;-64
2021/05/25 13:28:06;;;;;;;1.15;0.47;;;;;;;19.04;54.94;100009.38;2911074;81;21060;-65
2021/05/25 13:32:08;;;;;;;1.30;0.65;;;;;;;18.98;55.59;100006.42;2910366;81;21033;-62
2021/05/25 13:36:11;;;;;;;2.55;0.72;;;;;;;18.88;53.63;100009.91;2902780;81;21578;-61
2021/05/25 13:40:17;;;;;;;1.72;0.80;;;;;;;18.78;57.72;100009.34;2900327;82;21020;-65
2021/05/25 13:44:19;;;;;;;6.72;1.20;;;;;;;18.78;55.48;100010.69;2899214;82;21031;-65
2021/05/25 13:48:22;;;;;;;1.98;0.60;;;;;;;18.76;55.18;100012.73;2898645;82;21072;-65
2021/05/25 13:52:25;;;;;;;2.27;0.50;;;;;;;18.67;55.00;100020.92;2899290;82;21060;-66
2021/05/25 13:56:38;;;;;;;2.52;0.60;;;;;;;18.54;54.74;100004.56;2898710;82;21076;-66
2021/05/25 14:04:59;;;;;;;2.20;0.88;;;;;;;18.40;57.16;100005.70;2899400;82;21010;-66
2021/05/25 14:09:01;;;;;;;1.12;0.50;;;;;;;18.44;56.23;100006.67;2899077;82;21067;-66
2021/05/25 14:13:04;;;;;;;3.37;0.98;;;;;;;18.59;56.68;100014.27;2821997;84;21090;-66
2021/05/25 14:17:05;;;;;;;0.37;0.30;;;;;;;18.70;53.93;100016.50;2899774;81;21041;-66
2021/05/25 14:21:07;;;;;;;0.60;0.60;;;;;;;18.81;55.35;100020.59;2896227;82;21017;-67
2021/05/25 14:25:13;;;;;;;1.37;0.72;;;;;;;18.87;55.06;100020.86;2853762;82;21090;-69
2021/05/25 14:29:14;;;;;;;1.47;1.02;;;;;;;18.98;55.19;100023.94;2847031;83;21060;-66
2021/05/25 14:33:20;;;;;;;0.70;0.50;;;;;;;19.01;53.96;100021.89;2846913;83;21123;-69
2021/05/25 14:37:23;;;;;;;0.80;0.40;;;;;;;19.02;55.10;100016.82;2846477;83;21044;-68
2021/05/25 14:41:25;;;;;;;1.80;0.80;;;;;;;18.93;55.67;100022.30;2846985;83;21048;-70
2021/05/25 14:45:26;;;;;;;0.55;0.33;;;;;;;18.91;57.19;100027.04;2847028;83;21064;-69
2021/05/25 14:49:29;;;;;;;2.77;0.75;;;;;;;18.79;57.50;100025.33;2846846;83;21041;-69
2021/05/25 14:53:34;;;;;;;1.77;0.62;;;;;;;18.68;58.00;100027.98;2847501;83;21095;-66
2021/05/25 14:57:36;;;;;;;2.72;0.80;;;;;;;18.60;58.47;100017.80;2846917;83;21091;-69
2021/05/25 15:01:45;;;;;;;0.98;0.60;;;;;;;18.48;59.34;100018.25;2847498;83;21029;-69
2021/05/25 15:05:46;;;;;;;1.90;0.70;;;;;;;18.45;58.15;100002.96;2846188;83;21641;-69
2021/05/25 15:09:56;;;;;;;0.57;0.40;;;;;;;18.45;59.93;100004.31;2847209;83;21743;-69
2021/05/25 15:13:51;;;;;;;3.12;0.70;;;;;;;18.51;59.61;99995.52;2845676;83;21581;-68
2021/05/25 15:17:53;;;;;;;2.45;0.65;;;;;;;18.51;59.35;99983.39;2848704;83;21107;-68
2021/05/25 15:21:55;;;;;;;2.00;0.88;;;;;;;18.51;58.19;99977.48;2852142;83;21048;-66
2021/05/25 15:25:58;;;;;;;0.70;0.20;;;;;;;18.49;56.82;99975.48;2851955;83;21044;-66
2021/05/25 15:30:00;;;;;;;3.00;0.45;;;;;;;18.43;56.57;99987.50;2851360;83;21103;-63
2021/05/25 15:34:03;;;;;;;0.23;0.10;;;;;;;18.26;53.95;99980.94;2851151;83;21087;-67
2021/05/25 15:38:07;;;;;;;0.53;0.33;;;;;;;18.08;53.51;99983.98;2850855;83;21091;-71
2021/05/25 15:42:09;;;;;;;2.92;0.68;;;;;;;17.98;55.00;99986.91;2850608;83;21585;-67
2021/05/25 15:46:17;;;;;;;1.07;0.20;;;;;;;17.96;55.00;99999.70;2849365;83;21291;-67
2021/05/25 15:50:27;;;;;;;1.37;0.40;;;;;;;17.90;54.22;99995.05;2849113;83;21099;-67
2021/05/25 15:54:30;;;;;;;16.02;1.65;;;;;;;17.87;54.76;100001.62;2849400;83;21083;-67
2021/05/25 15:58:32;;;;;;;4.62;0.93;;;;;;;17.89;55.53;99994.73;2849490;83;21040;-66
2021/05/25 16:02:34;;;;;;;11.43;0.50;;;;;;;17.91;55.64;99990.00;2849486;83;22285;-66
2021/05/25 16:06:39;;;;;;;1.02;0.40;;;;;;;17.95;54.98;99998.03;2849827;83;21088;-67
2021/05/25 16:10:41;;;;;;;4.42;0.57;;;;;;;17.87;54.19;100011.05;2849695;83;21032;-66
2021/05/25 16:14:43;;;;;;;0.75;0.30;;;;;;;17.72;52.50;100009.66;2849921;83;21067;-67
2021/05/25 16:18:44;;;;;;;1.57;0.50;;;;;;;17.64;55.57;100028.52;2850061;83;21099;-66
2021/05/25 16:22:52;;;;;;;0.72;0.23;;;;;;;17.72;56.85;100024.94;2850181;83;21620;-66
2021/05/25 16:26:50;;;;;;;1.17;0.50;;;;;;;17.75;57.63;100031.30;2848499;83;21048;-66
2021/05/25 16:30:52;;;;;;;2.27;0.42;;;;;;;17.80;58.45;100025.72;2849889;83;21071;-67
2021/05/25 16:34:55;;;;;;;2.67;0.40;;;;;;;17.94;57.64;100035.38;2849854;83;21629;-67
2021/05/25 16:38:56;;;;;;;3.95;0.72;;;;;;;17.89;54.61;100036.44;2850002;83;21008;-67
2021/05/25 16:42:58;;;;;;;2.75;0.30;;;;;;;17.66;54.80;100035.41;2849906;83;21067;-67
2021/05/25 16:47:01;;;;;;;0.40;0.10;;;;;;;17.21;53.87;100031.13;2850162;83;21084;-66
2021/05/25 16:51:04;;;;;;;1.98;0.30;;;;;;;16.82;56.57;100035.47;2850077;83;21048;-64
2021/05/25 16:55:10;;;;;;;0.93;0.17;;;;;;;16.75;58.14;100041.70;2860730;82;21069;-65
2021/05/25 16:59:12;;;;;;;0.23;0.20;;;;;;;16.73;57.38;100037.83;2898056;82;21057;-65
2021/05/25 17:03:44;;;;;;;0.82;0.40;;;;;;;16.70;56.08;100044.40;2899783;82;21072;-64
2021/05/25 17:20:38;;;;;;;3.42;1.15;;;;;;;16.19;58.13;100041.94;2894711;82;21582;-65
2021/05/25 17:28:41;;;;;;;2.42;1.22;;;;;;;15.71;59.54;100053.78;2894136;82;21752;-64
2021/05/25 17:32:43;;;;;;;1.77;0.85;;;;;;;15.41;60.36;100060.10;2894322;82;21080;-64
2021/05/25 17:36:46;;;;;;;1.85;1.15;;;;;;;15.18;60.27;100058.02;2894495;82;33629;-64
2021/05/25 17:40:48;;;;;;;1.60;0.33;;;;;;;14.88;61.46;100054.86;2894255;82;21117;-64
2021/05/25 17:44:50;;;;;;;1.82;0.93;;;;;;;14.68;62.29;100065.77;2894203;82;21084;-64
2021/05/25 17:48:52;;;;;;;2.00;0.95;;;;;;;14.48;62.76;100077.68;2893921;82;21048;-64
2021/05/25 17:52:54;;;;;;;3.10;0.90;;;;;;;14.28;63.19;100087.23;2893773;82;21064;-64
2021/05/25 17:56:56;;;;;;;2.25;0.70;;;;;;;14.09;63.55;100097.62;2893908;82;21053;-64
2021/05/25 18:00:58;;;;;;;3.37;1.10;;;;;;;13.89;63.65;100101.78;2893564;82;21017;-64
2021/05/25 18:05:00;;;;;;;3.45;0.82;;;;;;;13.75;64.21;100100.45;2893502;82;21044;-64
2021/05/25 18:09:03;;;;;;;2.47;1.25;;;;;;;13.64;64.78;100104.69;2893366;82;21143;-64
2021/05/25 18:13:06;;;;;;;2.45;1.37;;;;;;;13.55;64.86;100115.27;2893611;82;21148;-64
2021/05/25 18:17:08;;;;;;;7.97;1.37;;;;;;;13.48;65.45;100124.88;2893465;82;21048;-63
2021/05/25 18:21:10;;;;;;;1.65;0.70;;;;;;;13.45;66.01;100133.20;2863293;82;21080;-63
2021/05/25 18:25:15;;;;;;;1.98;0.62;;;;;;;13.35;66.61;100135.03;2843551;83;21590;-63
2021/05/25 18:29:18;;;;;;;1.13;0.77;;;;;;;13.26;66.65;100129.59;2843743;83;21088;-63
2021/05/25 18:33:39;;;;;;;0.88;0.53;;;;;;;13.24;66.07;100123.56;2843472;83;21096;-63
2021/05/25 18:42:04;;;;;;;4.15;1.70;;;;;;;13.32;66.61;100117.97;2878925;82;21068;-62
2021/05/25 18:46:01;;;;;;;;;;;;;;;13.29;66.24;100122.62;2893979;82;21060;-63
2021/05/25 18:50:08;;;;;;;1.40;0.68;;;;;;;13.25;66.21;100133.26;2892871;82;20213;-62
2021/05/25 18:54:10;;;;;;;0.90;0.40;;;;;;;13.20;65.05;100116.84;2892357;82;21589;-63
2021/05/25 19:02:35;;;;;;;1.75;0.42;;;;;;;13.09;63.90;100139.71;2892361;82;21602;-63
2021/05/25 19:06:36;;;;;;;0.90;0.20;;;;;;;13.03;64.17;100147.80;2892700;82;21056;-63
2021/05/25 19:10:38;;;;;;;1.70;0.50;;;;;;;12.99;64.16;100148.61;2892621;82;21076;-63
2021/05/25 19:14:42;;;;;;;1.25;0.78;;;;;;;12.92;64.07;100150.67;2892578;82;21060;-62
2021/05/25 19:18:45;;;;;;;2.50;0.20;;;;;;;12.89;63.95;100154.45;2892760;82;21108;-63
2021/05/25 19:22:56;;;;;;;2.70;0.50;;;;;;;12.91;63.48;100163.67;2892658;82;21609;-63
2021/05/25 19:26:52;;;;;;;0.98;0.68;;;;;;;12.92;63.72;100170.18;2891333;82;21053;-62
2021/05/25 19:30:55;;;;;;;2.08;0.53;;;;;;;12.90;64.33;100181.50;2892620;82;21068;-63
2021/05/25 19:34:56;;;;;;;0.57;0.47;;;;;;;12.85;64.77;100186.43;2892254;82;21107;-62
2021/05/25 19:38:58;;;;;;;1.05;0.53;;;;;;;12.81;65.15;100190.38;2892480;82;21095;-63
2021/05/25 19:43:00;;;;;;;0.82;0.50;;;;;;;12.73;65.82;100189.75;2892443;82;21068;-63